sensor_id;sensor_type;location;lat;lon;timestamp;P1;durP1;ratioP1;P2;durP2;ratioP2
13173;SDS011;6652;48.802;9.190;2023-02-03T00:00:32;4.30;;;0.70;;
13173;SDS011;6652;48.802;9.190;2023-02-03T00:02:59;2.15;;;0.73;;
13173;SDS011;6652;48.802;9.190;2023-02-03T00:05:26;3.67;;;1.02;;
13173;SDS011;6652;48.802;9.190;2023-02-03T00:07:53;3.67;;;0.90;;
13173;SDS011;6652;48.802;9.190;2023-02-03T00:10:20;4.68;;;1.40;;
13173;SDS011;6652;48.802;9.190;2023-02-03T00:12:47;2.65;;;0.80;;
13173;SDS011;6652;48.802;9.190;2023-02-03T00:15:15;1.98;;;0.80;;
13173;SDS011;6652;48.802;9.190;2023-02-03T00:17:43;2.42;;;0.80;;
13173;SDS011;6652;48.802;9.190;2023-02-03T00:20:10;2.25;;;0.70;;
13173;SDS011;6652;48.802;9.190;2023-02-03T00:22:37;2.38;;;0.80;;
13173;SDS011;6652;48.802;9.190;2023-02-03T00:25:04;1.23;;;0.50;;
13173;SDS011;6652;48.802;9.190;2023-02-03T00:27:31;2.67;;;0.65;;
13173;SDS011;6652;48.802;9.190;2023-02-03T00:29:58;2.13;;;0.70;;
13173;SDS011;6652;48.802;9.190;2023-02-03T00:32:26;1.08;;;0.50;;
13173;SDS011;6652;48.802;9.190;2023-02-03T00:34:53;4.05;;;0.68;;
13173;SDS011;6652;48.802;9.190;2023-02-03T00:37:19;0.60;;;0.40;;
13173;SDS011;6652;48.802;9.190;2023-02-03T00:39:47;2.17;;;0.50;;
13173;SDS011;6652;48.802;9.190;2023-02-03T00:42:14;2.03;;;0.68;;
13173;SDS011;6652;48.802;9.190;2023-02-03T00:44:41;0.98;;;0.40;;
13173;SDS011;6652;48.802;9.190;2023-02-03T00:47:07;2.70;;;0.77;;
13173;SDS011;6652;48.802;9.190;2023-02-03T00:49:36;0.73;;;0.35;;
13173;SDS011;6652;48.802;9.190;2023-02-03T00:52:02;2.47;;;0.60;;
13173;SDS011;6652;48.802;9.190;2023-02-03T00:54:29;2.97;;;0.70;;
13173;SDS011;6652;48.802;9.190;2023-02-03T00:56:56;0.70;;;0.70;;
13173;SDS011;6652;48.802;9.190;2023-02-03T00:59:23;4.18;;;0.73;;
13173;SDS011;6652;48.802;9.190;2023-02-03T01:01:50;5.05;;;0.70;;
13173;SDS011;6652;48.802;9.190;2023-02-03T01:04:17;3.78;;;0.60;;
13173;SDS011;6652;48.802;9.190;2023-02-03T01:06:45;2.33;;;0.80;;
13173;SDS011;6652;48.802;9.190;2023-02-03T01:09:12;5.38;;;0.73;;
13173;SDS011;6652;48.802;9.190;2023-02-03T01:11:38;1.45;;;0.75;;
13173;SDS011;6652;48.802;9.190;2023-02-03T01:14:05;1.58;;;0.57;;
13173;SDS011;6652;48.802;9.190;2023-02-03T01:16:32;3.38;;;0.70;;
13173;SDS011;6652;48.802;9.190;2023-02-03T01:19:02;2.03;;;0.55;;
13173;SDS011;6652;48.802;9.190;2023-02-03T01:21:29;3.80;;;0.82;;
13173;SDS011;6652;48.802;9.190;2023-02-03T01:23:58;2.78;;;0.93;;
13173;SDS011;6652;48.802;9.190;2023-02-03T01:26:25;2.28;;;1.25;;
13173;SDS011;6652;48.802;9.190;2023-02-03T01:28:52;1.52;;;0.70;;
13173;SDS011;6652;48.802;9.190;2023-02-03T01:31:21;1.75;;;0.70;;
13173;SDS011;6652;48.802;9.190;2023-02-03T01:33:50;0.68;;;0.55;;
13173;SDS011;6652;48.802;9.190;2023-02-03T01:36:18;2.67;;;0.80;;
13173;SDS011;6652;48.802;9.190;2023-02-03T01:38:47;2.13;;;0.80;;
13173;SDS011;6652;48.802;9.190;2023-02-03T01:41:16;5.07;;;0.80;;
13173;SDS011;6652;48.802;9.190;2023-02-03T01:43:44;3.83;;;1.00;;
13173;SDS011;6652;48.802;9.190;2023-02-03T01:46:21;1.70;;;0.65;;
13173;SDS011;6652;48.802;9.190;2023-02-03T01:48:52;1.17;;;0.57;;
13173;SDS011;6652;48.802;9.190;2023-02-03T01:51:21;3.10;;;0.75;;
13173;SDS011;6652;48.802;9.190;2023-02-03T01:53:49;4.50;;;0.70;;
13173;SDS011;6652;48.802;9.190;2023-02-03T01:56:19;1.85;;;0.70;;
13173;SDS011;6652;48.802;9.190;2023-02-03T01:58:47;2.00;;;0.77;;
13173;SDS011;6652;48.802;9.190;2023-02-03T02:01:15;1.90;;;0.85;;
13173;SDS011;6652;48.802;9.190;2023-02-03T02:03:43;2.80;;;0.80;;
13173;SDS011;6652;48.802;9.190;2023-02-03T02:06:15;1.58;;;0.80;;
13173;SDS011;6652;48.802;9.190;2023-02-03T02:08:43;1.70;;;0.90;;
13173;SDS011;6652;48.802;9.190;2023-02-03T02:11:13;1.13;;;0.80;;
13173;SDS011;6652;48.802;9.190;2023-02-03T02:13:41;1.67;;;0.60;;
13173;SDS011;6652;48.802;9.190;2023-02-03T02:16:10;2.60;;;0.70;;
13173;SDS011;6652;48.802;9.190;2023-02-03T02:18:45;2.63;;;0.88;;
13173;SDS011;6652;48.802;9.190;2023-02-03T02:27:21;3.70;;;0.93;;
13173;SDS011;6652;48.802;9.190;2023-02-03T02:30:14;1.98;;;0.90;;
13173;SDS011;6652;48.802;9.190;2023-02-03T02:32:58;3.45;;;0.95;;
13173;SDS011;6652;48.802;9.190;2023-02-03T02:35:33;3.05;;;1.33;;
13173;SDS011;6652;48.802;9.190;2023-02-03T02:38:14;4.30;;;0.90;;
13173;SDS011;6652;48.802;9.190;2023-02-03T02:40:53;0.63;;;0.63;;
13173;SDS011;6652;48.802;9.190;2023-02-03T02:43:27;2.70;;;1.08;;
13173;SDS011;6652;48.802;9.190;2023-02-03T02:46:00;1.85;;;1.00;;
13173;SDS011;6652;48.802;9.190;2023-02-03T02:48:34;3.00;;;0.85;;
13173;SDS011;6652;48.802;9.190;2023-02-03T02:51:05;4.53;;;1.20;;
13173;SDS011;6652;48.802;9.190;2023-02-03T02:53:37;3.20;;;1.33;;
13173;SDS011;6652;48.802;9.190;2023-02-03T02:56:06;3.65;;;0.95;;
13173;SDS011;6652;48.802;9.190;2023-02-03T02:58:36;5.13;;;1.27;;
13173;SDS011;6652;48.802;9.190;2023-02-03T03:01:06;3.75;;;1.13;;
13173;SDS011;6652;48.802;9.190;2023-02-03T03:03:35;1.55;;;1.00;;
13173;SDS011;6652;48.802;9.190;2023-02-03T03:06:05;4.30;;;0.93;;
13173;SDS011;6652;48.802;9.190;2023-02-03T03:08:37;3.83;;;0.90;;
13173;SDS011;6652;48.802;9.190;2023-02-03T03:11:06;4.55;;;0.98;;
13173;SDS011;6652;48.802;9.190;2023-02-03T03:13:34;1.70;;;1.00;;
13173;SDS011;6652;48.802;9.190;2023-02-03T03:16:06;3.55;;;0.85;;
13173;SDS011;6652;48.802;9.190;2023-02-03T03:18:38;1.77;;;0.90;;
13173;SDS011;6652;48.802;9.190;2023-02-03T03:21:08;4.15;;;1.10;;
13173;SDS011;6652;48.802;9.190;2023-02-03T03:23:39;2.70;;;0.85;;
13173;SDS011;6652;48.802;9.190;2023-02-03T03:26:10;2.10;;;0.90;;
13173;SDS011;6652;48.802;9.190;2023-02-03T03:28:41;2.50;;;0.95;;
13173;SDS011;6652;48.802;9.190;2023-02-03T03:31:13;3.33;;;0.73;;
13173;SDS011;6652;48.802;9.190;2023-02-03T03:33:42;1.90;;;0.82;;
13173;SDS011;6652;48.802;9.190;2023-02-03T03:36:11;8.38;;;1.00;;
13173;SDS011;6652;48.802;9.190;2023-02-03T03:38:45;1.33;;;0.70;;
13173;SDS011;6652;48.802;9.190;2023-02-03T03:41:18;3.35;;;0.82;;
13173;SDS011;6652;48.802;9.190;2023-02-03T03:43:52;2.60;;;0.70;;
13173;SDS011;6652;48.802;9.190;2023-02-03T03:46:24;2.70;;;0.77;;
13173;SDS011;6652;48.802;9.190;2023-02-03T03:48:57;1.77;;;0.63;;
13173;SDS011;6652;48.802;9.190;2023-02-03T03:51:27;0.73;;;0.70;;
13173;SDS011;6652;48.802;9.190;2023-02-03T03:53:59;1.17;;;0.63;;
13173;SDS011;6652;48.802;9.190;2023-02-03T03:56:30;4.72;;;0.80;;
13173;SDS011;6652;48.802;9.190;2023-02-03T03:59:01;1.20;;;0.85;;
13173;SDS011;6652;48.802;9.190;2023-02-03T04:01:29;1.77;;;0.60;;
13173;SDS011;6652;48.802;9.190;2023-02-03T04:03:59;3.03;;;0.60;;
13173;SDS011;6652;48.802;9.190;2023-02-03T04:06:30;4.70;;;0.93;;
13173;SDS011;6652;48.802;9.190;2023-02-03T04:08:57;1.85;;;0.63;;
13173;SDS011;6652;48.802;9.190;2023-02-03T04:11:26;1.35;;;0.98;;
13173;SDS011;6652;48.802;9.190;2023-02-03T04:14:10;1.08;;;0.57;;
13173;SDS011;6652;48.802;9.190;2023-02-03T04:16:37;2.28;;;0.60;;
13173;SDS011;6652;48.802;9.190;2023-02-03T04:19:05;0.60;;;0.40;;
13173;SDS011;6652;48.802;9.190;2023-02-03T04:21:32;0.30;;;0.30;;
13173;SDS011;6652;48.802;9.190;2023-02-03T04:23:59;1.48;;;0.45;;
13173;SDS011;6652;48.802;9.190;2023-02-03T04:26:26;0.32;;;0.30;;
13173;SDS011;6652;48.802;9.190;2023-02-03T04:28:53;2.15;;;0.52;;
13173;SDS011;6652;48.802;9.190;2023-02-03T04:31:20;1.30;;;0.52;;
13173;SDS011;6652;48.802;9.190;2023-02-03T04:33:46;1.55;;;0.52;;
13173;SDS011;6652;48.802;9.190;2023-02-03T04:36:14;0.98;;;0.30;;
13173;SDS011;6652;48.802;9.190;2023-02-03T04:38:41;0.50;;;0.40;;
13173;SDS011;6652;48.802;9.190;2023-02-03T04:41:08;1.58;;;0.60;;
13173;SDS011;6652;48.802;9.190;2023-02-03T04:43:42;0.90;;;0.65;;
13173;SDS011;6652;48.802;9.190;2023-02-03T04:46:09;1.90;;;0.50;;
13173;SDS011;6652;48.802;9.190;2023-02-03T04:48:36;0.35;;;0.35;;
13173;SDS011;6652;48.802;9.190;2023-02-03T04:51:03;1.60;;;0.60;;
13173;SDS011;6652;48.802;9.190;2023-02-03T04:53:33;1.15;;;0.20;;
13173;SDS011;6652;48.802;9.190;2023-02-03T04:56:00;0.35;;;0.30;;
13173;SDS011;6652;48.802;9.190;2023-02-03T04:58:27;0.98;;;0.40;;
13173;SDS011;6652;48.802;9.190;2023-02-03T05:00:54;1.02;;;0.60;;
13173;SDS011;6652;48.802;9.190;2023-02-03T05:03:21;1.45;;;0.73;;
13173;SDS011;6652;48.802;9.190;2023-02-03T05:05:48;4.78;;;0.70;;
13173;SDS011;6652;48.802;9.190;2023-02-03T05:08:15;0.90;;;0.50;;
13173;SDS011;6652;48.802;9.190;2023-02-03T05:10:43;1.63;;;0.60;;
13173;SDS011;6652;48.802;9.190;2023-02-03T05:13:11;0.70;;;0.40;;
13173;SDS011;6652;48.802;9.190;2023-02-03T05:15:38;0.98;;;0.43;;
13173;SDS011;6652;48.802;9.190;2023-02-03T05:18:04;2.17;;;0.50;;
13173;SDS011;6652;48.802;9.190;2023-02-03T05:20:31;1.30;;;0.50;;
13173;SDS011;6652;48.802;9.190;2023-02-03T05:22:58;1.55;;;0.52;;
13173;SDS011;6652;48.802;9.190;2023-02-03T05:25:25;4.95;;;1.67;;
13173;SDS011;6652;48.802;9.190;2023-02-03T05:27:53;5.32;;;1.00;;
13173;SDS011;6652;48.802;9.190;2023-02-03T05:30:20;1.00;;;0.40;;
13173;SDS011;6652;48.802;9.190;2023-02-03T05:32:47;1.20;;;0.50;;
13173;SDS011;6652;48.802;9.190;2023-02-03T05:35:14;1.80;;;0.52;;
13173;SDS011;6652;48.802;9.190;2023-02-03T05:37:42;2.17;;;0.50;;
13173;SDS011;6652;48.802;9.190;2023-02-03T05:40:09;1.98;;;0.85;;
13173;SDS011;6652;48.802;9.190;2023-02-03T05:42:56;0.98;;;0.50;;
13173;SDS011;6652;48.802;9.190;2023-02-03T05:45:23;2.85;;;0.70;;
13173;SDS011;6652;48.802;9.190;2023-02-03T05:47:50;1.52;;;0.73;;
13173;SDS011;6652;48.802;9.190;2023-02-03T05:50:17;0.45;;;0.40;;
13173;SDS011;6652;48.802;9.190;2023-02-03T05:52:44;6.85;;;1.00;;
13173;SDS011;6652;48.802;9.190;2023-02-03T05:55:11;1.27;;;0.70;;
13173;SDS011;6652;48.802;9.190;2023-02-03T05:57:37;2.13;;;0.60;;
13173;SDS011;6652;48.802;9.190;2023-02-03T06:00:07;2.67;;;0.90;;
13173;SDS011;6652;48.802;9.190;2023-02-03T06:02:34;1.92;;;0.65;;
13173;SDS011;6652;48.802;9.190;2023-02-03T06:05:01;1.50;;;0.60;;
13173;SDS011;6652;48.802;9.190;2023-02-03T06:07:28;2.38;;;0.52;;
13173;SDS011;6652;48.802;9.190;2023-02-03T06:09:54;3.33;;;0.80;;
13173;SDS011;6652;48.802;9.190;2023-02-03T06:12:21;1.67;;;0.55;;
13173;SDS011;6652;48.802;9.190;2023-02-03T06:14:50;1.75;;;0.80;;
13173;SDS011;6652;48.802;9.190;2023-02-03T06:17:18;2.40;;;0.68;;
13173;SDS011;6652;48.802;9.190;2023-02-03T06:19:45;1.13;;;0.60;;
13173;SDS011;6652;48.802;9.190;2023-02-03T06:22:12;1.42;;;0.75;;
13173;SDS011;6652;48.802;9.190;2023-02-03T06:24:39;2.78;;;0.60;;
13173;SDS011;6652;48.802;9.190;2023-02-03T06:27:05;1.05;;;0.80;;
13173;SDS011;6652;48.802;9.190;2023-02-03T06:29:32;2.33;;;0.73;;
13173;SDS011;6652;48.802;9.190;2023-02-03T06:31:59;1.52;;;0.57;;
13173;SDS011;6652;48.802;9.190;2023-02-03T06:34:27;6.00;;;1.02;;
13173;SDS011;6652;48.802;9.190;2023-02-03T06:36:54;8.68;;;0.85;;
13173;SDS011;6652;48.802;9.190;2023-02-03T06:39:21;3.70;;;0.85;;
13173;SDS011;6652;48.802;9.190;2023-02-03T06:41:48;3.03;;;0.57;;
13173;SDS011;6652;48.802;9.190;2023-02-03T06:44:16;1.63;;;0.75;;
13173;SDS011;6652;48.802;9.190;2023-02-03T06:46:43;4.38;;;0.90;;
13173;SDS011;6652;48.802;9.190;2023-02-03T06:49:10;2.60;;;0.90;;
13173;SDS011;6652;48.802;9.190;2023-02-03T06:51:38;1.63;;;0.90;;
13173;SDS011;6652;48.802;9.190;2023-02-03T06:54:05;5.65;;;1.00;;
13173;SDS011;6652;48.802;9.190;2023-02-03T06:56:32;6.93;;;1.20;;
13173;SDS011;6652;48.802;9.190;2023-02-03T06:58:59;1.83;;;0.93;;
13173;SDS011;6652;48.802;9.190;2023-02-03T07:01:29;4.20;;;1.27;;
13173;SDS011;6652;48.802;9.190;2023-02-03T07:03:56;3.22;;;1.38;;
13173;SDS011;6652;48.802;9.190;2023-02-03T07:06:23;3.60;;;1.15;;
13173;SDS011;6652;48.802;9.190;2023-02-03T07:08:54;2.60;;;0.98;;
13173;SDS011;6652;48.802;9.190;2023-02-03T07:11:22;7.07;;;0.77;;
13173;SDS011;6652;48.802;9.190;2023-02-03T07:13:49;7.60;;;1.05;;
13173;SDS011;6652;48.802;9.190;2023-02-03T07:16:16;1.25;;;0.93;;
13173;SDS011;6652;48.802;9.190;2023-02-03T07:18:44;2.42;;;0.90;;
13173;SDS011;6652;48.802;9.190;2023-02-03T07:21:11;2.17;;;0.65;;
13173;SDS011;6652;48.802;9.190;2023-02-03T07:23:38;2.30;;;0.80;;
13173;SDS011;6652;48.802;9.190;2023-02-03T07:26:06;1.60;;;1.00;;
13173;SDS011;6652;48.802;9.190;2023-02-03T07:28:34;3.80;;;1.02;;
13173;SDS011;6652;48.802;9.190;2023-02-03T07:31:01;2.05;;;0.80;;
13173;SDS011;6652;48.802;9.190;2023-02-03T07:33:28;6.65;;;1.10;;
13173;SDS011;6652;48.802;9.190;2023-02-03T07:35:56;3.47;;;1.05;;
13173;SDS011;6652;48.802;9.190;2023-02-03T07:38:25;6.40;;;1.35;;
13173;SDS011;6652;48.802;9.190;2023-02-03T07:40:53;5.07;;;1.13;;
13173;SDS011;6652;48.802;9.190;2023-02-03T07:43:21;2.00;;;0.82;;
13173;SDS011;6652;48.802;9.190;2023-02-03T07:45:49;2.45;;;1.00;;
13173;SDS011;6652;48.802;9.190;2023-02-03T07:48:16;6.00;;;1.30;;
13173;SDS011;6652;48.802;9.190;2023-02-03T07:50:42;4.97;;;1.08;;
13173;SDS011;6652;48.802;9.190;2023-02-03T07:53:09;3.10;;;1.20;;
13173;SDS011;6652;48.802;9.190;2023-02-03T07:55:36;7.35;;;1.20;;
13173;SDS011;6652;48.802;9.190;2023-02-03T07:58:05;2.22;;;1.17;;
13173;SDS011;6652;48.802;9.190;2023-02-03T08:00:33;5.93;;;1.50;;
13173;SDS011;6652;48.802;9.190;2023-02-03T08:03:00;3.05;;;1.10;;
13173;SDS011;6652;48.802;9.190;2023-02-03T08:05:27;5.20;;;1.48;;
13173;SDS011;6652;48.802;9.190;2023-02-03T08:07:54;4.47;;;0.90;;
13173;SDS011;6652;48.802;9.190;2023-02-03T08:10:21;8.95;;;1.42;;
13173;SDS011;6652;48.802;9.190;2023-02-03T08:12:48;4.18;;;2.17;;
13173;SDS011;6652;48.802;9.190;2023-02-03T08:15:18;6.20;;;1.40;;
13173;SDS011;6652;48.802;9.190;2023-02-03T08:17:46;2.95;;;1.52;;
13173;SDS011;6652;48.802;9.190;2023-02-03T08:20:14;8.20;;;1.55;;
13173;SDS011;6652;48.802;9.190;2023-02-03T08:22:41;11.40;;;2.03;;
13173;SDS011;6652;48.802;9.190;2023-02-03T08:25:08;3.13;;;1.23;;
13173;SDS011;6652;48.802;9.190;2023-02-03T08:27:35;4.22;;;1.52;;
13173;SDS011;6652;48.802;9.190;2023-02-03T08:30:03;5.95;;;1.40;;
13173;SDS011;6652;48.802;9.190;2023-02-03T08:32:32;2.03;;;1.20;;
13173;SDS011;6652;48.802;9.190;2023-02-03T08:35:00;6.75;;;1.73;;
13173;SDS011;6652;48.802;9.190;2023-02-03T08:37:28;6.75;;;1.63;;
13173;SDS011;6652;48.802;9.190;2023-02-03T08:39:56;6.85;;;3.42;;
13173;SDS011;6652;48.802;9.190;2023-02-03T08:42:24;2.25;;;1.23;;
13173;SDS011;6652;48.802;9.190;2023-02-03T08:44:50;10.02;;;1.83;;
13173;SDS011;6652;48.802;9.190;2023-02-03T08:47:17;2.95;;;1.80;;
13173;SDS011;6652;48.802;9.190;2023-02-03T08:49:44;6.78;;;1.98;;
13173;SDS011;6652;48.802;9.190;2023-02-03T08:52:13;9.63;;;1.90;;
13173;SDS011;6652;48.802;9.190;2023-02-03T08:54:40;6.68;;;1.92;;
13173;SDS011;6652;48.802;9.190;2023-02-03T08:57:07;7.68;;;1.90;;
13173;SDS011;6652;48.802;9.190;2023-02-03T08:59:34;4.53;;;1.70;;
13173;SDS011;6652;48.802;9.190;2023-02-03T09:02:05;5.32;;;1.67;;
13173;SDS011;6652;48.802;9.190;2023-02-03T09:04:34;3.00;;;1.70;;
13173;SDS011;6652;48.802;9.190;2023-02-03T09:07:01;4.47;;;1.40;;
13173;SDS011;6652;48.802;9.190;2023-02-03T09:09:30;3.20;;;1.67;;
13173;SDS011;6652;48.802;9.190;2023-02-03T09:11:57;3.10;;;2.00;;
13173;SDS011;6652;48.802;9.190;2023-02-03T09:14:26;7.13;;;1.90;;
13173;SDS011;6652;48.802;9.190;2023-02-03T09:16:53;4.80;;;2.05;;
13173;SDS011;6652;48.802;9.190;2023-02-03T09:19:20;4.80;;;1.70;;
13173;SDS011;6652;48.802;9.190;2023-02-03T09:21:47;3.75;;;1.58;;
13173;SDS011;6652;48.802;9.190;2023-02-03T09:24:14;3.13;;;1.73;;
13173;SDS011;6652;48.802;9.190;2023-02-03T09:26:43;5.63;;;1.90;;
13173;SDS011;6652;48.802;9.190;2023-02-03T09:29:10;6.25;;;1.63;;
13173;SDS011;6652;48.802;9.190;2023-02-03T09:31:37;6.38;;;1.83;;
13173;SDS011;6652;48.802;9.190;2023-02-03T09:34:04;5.95;;;2.72;;
13173;SDS011;6652;48.802;9.190;2023-02-03T09:36:31;5.60;;;2.42;;
13173;SDS011;6652;48.802;9.190;2023-02-03T09:38:58;5.75;;;1.55;;
13173;SDS011;6652;48.802;9.190;2023-02-03T09:41:29;6.80;;;1.98;;
13173;SDS011;6652;48.802;9.190;2023-02-03T09:44:16;4.20;;;1.73;;
13173;SDS011;6652;48.802;9.190;2023-02-03T09:46:49;2.10;;;1.20;;
13173;SDS011;6652;48.802;9.190;2023-02-03T09:49:21;5.20;;;1.67;;
13173;SDS011;6652;48.802;9.190;2023-02-03T09:51:52;5.82;;;2.08;;
13173;SDS011;6652;48.802;9.190;2023-02-03T09:54:25;5.18;;;1.90;;
13173;SDS011;6652;48.802;9.190;2023-02-03T09:57:01;4.22;;;1.45;;
13173;SDS011;6652;48.802;9.190;2023-02-03T09:59:37;4.45;;;1.30;;
13173;SDS011;6652;48.802;9.190;2023-02-03T10:02:09;7.30;;;2.17;;
13173;SDS011;6652;48.802;9.190;2023-02-03T10:07:19;4.50;;;1.42;;
13173;SDS011;6652;48.802;9.190;2023-02-03T10:09:55;2.35;;;1.33;;
13173;SDS011;6652;48.802;9.190;2023-02-03T10:12:38;5.72;;;1.42;;
13173;SDS011;6652;48.802;9.190;2023-02-03T10:15:21;5.50;;;1.23;;
13173;SDS011;6652;48.802;9.190;2023-02-03T10:18:04;5.47;;;1.25;;
13173;SDS011;6652;48.802;9.190;2023-02-03T10:20:35;4.90;;;1.42;;
13173;SDS011;6652;48.802;9.190;2023-02-03T10:23:08;8.38;;;1.42;;
13173;SDS011;6652;48.802;9.190;2023-02-03T10:25:40;4.70;;;1.27;;
13173;SDS011;6652;48.802;9.190;2023-02-03T10:28:16;4.30;;;1.45;;
13173;SDS011;6652;48.802;9.190;2023-02-03T10:30:45;3.85;;;1.80;;
13173;SDS011;6652;48.802;9.190;2023-02-03T10:33:15;5.88;;;1.40;;
13173;SDS011;6652;48.802;9.190;2023-02-03T10:35:45;3.20;;;1.30;;
13173;SDS011;6652;48.802;9.190;2023-02-03T10:38:18;8.48;;;1.13;;
13173;SDS011;6652;48.802;9.190;2023-02-03T10:40:52;4.30;;;1.02;;
13173;SDS011;6652;48.802;9.190;2023-02-03T10:43:20;2.47;;;0.80;;
13173;SDS011;6652;48.802;9.190;2023-02-03T10:46:05;7.28;;;2.58;;
13173;SDS011;6652;48.802;9.190;2023-02-03T10:48:31;2.30;;;0.90;;
13173;SDS011;6652;48.802;9.190;2023-02-03T10:50:58;8.38;;;1.02;;
13173;SDS011;6652;48.802;9.190;2023-02-03T10:53:31;5.68;;;0.85;;
13173;SDS011;6652;48.802;9.190;2023-02-03T10:56:00;2.67;;;0.70;;
13173;SDS011;6652;48.802;9.190;2023-02-03T10:58:31;1.80;;;0.90;;
13173;SDS011;6652;48.802;9.190;2023-02-03T11:01:07;2.10;;;0.80;;
13173;SDS011;6652;48.802;9.190;2023-02-03T11:03:36;2.28;;;0.73;;
13173;SDS011;6652;48.802;9.190;2023-02-03T11:06:04;1.23;;;0.70;;
13173;SDS011;6652;48.802;9.190;2023-02-03T11:08:34;1.25;;;0.70;;
13173;SDS011;6652;48.802;9.190;2023-02-03T11:11:04;1.20;;;0.55;;
13173;SDS011;6652;48.802;9.190;2023-02-03T11:13:36;1.90;;;0.80;;
13173;SDS011;6652;48.802;9.190;2023-02-03T11:16:04;3.25;;;1.20;;
13173;SDS011;6652;48.802;9.190;2023-02-03T11:21:25;1.75;;;0.50;;
13173;SDS011;6652;48.802;9.190;2023-02-03T11:26:45;3.22;;;0.40;;
13173;SDS011;6652;48.802;9.190;2023-02-03T11:29:17;2.20;;;0.60;;
13173;SDS011;6652;48.802;9.190;2023-02-03T11:31:48;1.25;;;0.60;;
13173;SDS011;6652;48.802;9.190;2023-02-03T11:34:18;4.72;;;0.50;;
13173;SDS011;6652;48.802;9.190;2023-02-03T11:36:48;1.85;;;0.47;;
13173;SDS011;6652;48.802;9.190;2023-02-03T11:39:16;0.95;;;0.47;;
13173;SDS011;6652;48.802;9.190;2023-02-03T11:41:45;0.63;;;0.50;;
13173;SDS011;6652;48.802;9.190;2023-02-03T11:44:19;1.75;;;0.50;;
13173;SDS011;6652;48.802;9.190;2023-02-03T11:46:48;0.40;;;0.40;;
13173;SDS011;6652;48.802;9.190;2023-02-03T11:49:25;1.05;;;0.60;;
13173;SDS011;6652;48.802;9.190;2023-02-03T11:52:09;0.90;;;0.57;;
13173;SDS011;6652;48.802;9.190;2023-02-03T11:54:53;2.28;;;0.30;;
13173;SDS011;6652;48.802;9.190;2023-02-03T11:57:31;0.40;;;0.40;;
13173;SDS011;6652;48.802;9.190;2023-02-03T12:00:13;0.70;;;0.45;;
13173;SDS011;6652;48.802;9.190;2023-02-03T12:03:00;0.47;;;0.38;;
13173;SDS011;6652;48.802;9.190;2023-02-03T12:05:43;0.40;;;0.40;;
13173;SDS011;6652;48.802;9.190;2023-02-03T12:08:25;1.00;;;0.47;;
13173;SDS011;6652;48.802;9.190;2023-02-03T12:11:05;0.82;;;0.60;;
13173;SDS011;6652;48.802;9.190;2023-02-03T12:13:48;1.60;;;0.50;;
13173;SDS011;6652;48.802;9.190;2023-02-03T12:16:33;0.98;;;0.50;;
13173;SDS011;6652;48.802;9.190;2023-02-03T12:19:21;0.93;;;0.40;;
13173;SDS011;6652;48.802;9.190;2023-02-03T12:21:54;1.17;;;0.55;;
13173;SDS011;6652;48.802;9.190;2023-02-03T12:24:28;0.52;;;0.35;;
13173;SDS011;6652;48.802;9.190;2023-02-03T12:27:09;1.17;;;0.30;;
13173;SDS011;6652;48.802;9.190;2023-02-03T12:29:43;0.85;;;0.50;;
13173;SDS011;6652;48.802;9.190;2023-02-03T12:32:16;0.80;;;0.50;;
13173;SDS011;6652;48.802;9.190;2023-02-03T12:34:51;2.40;;;0.50;;
13173;SDS011;6652;48.802;9.190;2023-02-03T12:37:22;0.85;;;0.40;;
13173;SDS011;6652;48.802;9.190;2023-02-03T12:39:52;0.32;;;0.30;;
13173;SDS011;6652;48.802;9.190;2023-02-03T12:42:23;1.48;;;0.50;;
13173;SDS011;6652;48.802;9.190;2023-02-03T12:44:56;0.85;;;0.63;;
13173;SDS011;6652;48.802;9.190;2023-02-03T12:47:29;0.22;;;0.20;;
13173;SDS011;6652;48.802;9.190;2023-02-03T12:50:02;0.88;;;0.40;;
13173;SDS011;6652;48.802;9.190;2023-02-03T12:52:31;0.40;;;0.30;;
13173;SDS011;6652;48.802;9.190;2023-02-03T12:55:05;0.43;;;0.30;;
13173;SDS011;6652;48.802;9.190;2023-02-03T12:57:42;0.40;;;0.40;;
13173;SDS011;6652;48.802;9.190;2023-02-03T13:00:17;1.17;;;0.57;;
13173;SDS011;6652;48.802;9.190;2023-02-03T13:03:01;0.40;;;0.40;;
13173;SDS011;6652;48.802;9.190;2023-02-03T13:05:38;1.00;;;0.90;;
13173;SDS011;6652;48.802;9.190;2023-02-03T13:08:11;5.20;;;0.95;;
13173;SDS011;6652;48.802;9.190;2023-02-03T13:10:44;0.82;;;0.52;;
13173;SDS011;6652;48.802;9.190;2023-02-03T13:13:16;3.28;;;0.70;;
13173;SDS011;6652;48.802;9.190;2023-02-03T13:18:22;1.40;;;0.90;;
13173;SDS011;6652;48.802;9.190;2023-02-03T13:20:53;1.33;;;0.50;;
13173;SDS011;6652;48.802;9.190;2023-02-03T13:23:21;0.80;;;0.60;;
13173;SDS011;6652;48.802;9.190;2023-02-03T13:25:53;0.85;;;0.60;;
13173;SDS011;6652;48.802;9.190;2023-02-03T13:28:39;0.50;;;0.50;;
13173;SDS011;6652;48.802;9.190;2023-02-03T13:31:22;3.92;;;0.50;;
13173;SDS011;6652;48.802;9.190;2023-02-03T13:34:09;0.95;;;0.40;;
13173;SDS011;6652;48.802;9.190;2023-02-03T13:37:00;1.23;;;0.40;;
13173;SDS011;6652;48.802;9.190;2023-02-03T13:39:45;1.05;;;0.40;;
13173;SDS011;6652;48.802;9.190;2023-02-03T13:42:22;3.42;;;0.82;;
13173;SDS011;6652;48.802;9.190;2023-02-03T13:44:52;0.30;;;0.30;;
13173;SDS011;6652;48.802;9.190;2023-02-03T13:47:23;1.17;;;0.60;;
13173;SDS011;6652;48.802;9.190;2023-02-03T13:49:55;2.28;;;0.63;;
13173;SDS011;6652;48.802;9.190;2023-02-03T13:52:27;1.85;;;0.70;;
13173;SDS011;6652;48.802;9.190;2023-02-03T13:54:59;4.13;;;0.63;;
13173;SDS011;6652;48.802;9.190;2023-02-03T13:57:30;0.85;;;0.50;;
13173;SDS011;6652;48.802;9.190;2023-02-03T14:00:05;2.05;;;0.52;;
13173;SDS011;6652;48.802;9.190;2023-02-03T14:02:54;0.77;;;0.50;;
13173;SDS011;6652;48.802;9.190;2023-02-03T14:17:07;0.32;;;0.30;;
13173;SDS011;6652;48.802;9.190;2023-02-03T14:23:23;0.88;;;0.57;;
13173;SDS011;6652;48.802;9.190;2023-02-03T14:28:23;1.45;;;0.40;;
13173;SDS011;6652;48.802;9.190;2023-02-03T14:31:01;0.93;;;0.32;;
13173;SDS011;6652;48.802;9.190;2023-02-03T14:33:55;1.83;;;0.50;;
13173;SDS011;6652;48.802;9.190;2023-02-03T14:36:48;0.93;;;0.60;;
13173;SDS011;6652;48.802;9.190;2023-02-03T14:42:41;0.35;;;0.35;;
13173;SDS011;6652;48.802;9.190;2023-02-03T14:45:38;3.10;;;0.68;;
13173;SDS011;6652;48.802;9.190;2023-02-03T14:48:23;1.88;;;0.40;;
13173;SDS011;6652;48.802;9.190;2023-02-03T14:51:04;5.60;;;0.57;;
13173;SDS011;6652;48.802;9.190;2023-02-03T14:53:45;1.05;;;0.40;;
13173;SDS011;6652;48.802;9.190;2023-02-03T14:56:25;1.95;;;0.40;;
13173;SDS011;6652;48.802;9.190;2023-02-03T14:59:23;0.52;;;0.38;;
13173;SDS011;6652;48.802;9.190;2023-02-03T15:02:12;0.32;;;0.32;;
13173;SDS011;6652;48.802;9.190;2023-02-03T15:04:40;0.52;;;0.30;;
13173;SDS011;6652;48.802;9.190;2023-02-03T15:07:10;0.43;;;0.40;;
13173;SDS011;6652;48.802;9.190;2023-02-03T15:10:02;1.38;;;0.50;;
13173;SDS011;6652;48.802;9.190;2023-02-03T15:12:33;2.20;;;0.22;;
13173;SDS011;6652;48.802;9.190;2023-02-03T15:15:12;0.35;;;0.32;;
13173;SDS011;6652;48.802;9.190;2023-02-03T15:17:43;0.70;;;0.40;;
13173;SDS011;6652;48.802;9.190;2023-02-03T15:20:30;2.47;;;0.47;;
13173;SDS011;6652;48.802;9.190;2023-02-03T15:26:49;0.40;;;0.38;;
13173;SDS011;6652;48.802;9.190;2023-02-03T15:29:28;8.73;;;4.85;;
13173;SDS011;6652;48.802;9.190;2023-02-03T15:32:00;2.95;;;0.40;;
13173;SDS011;6652;48.802;9.190;2023-02-03T15:34:33;1.25;;;0.60;;
13173;SDS011;6652;48.802;9.190;2023-02-03T15:37:06;2.08;;;0.50;;
13173;SDS011;6652;48.802;9.190;2023-02-03T15:39:37;0.40;;;0.30;;
13173;SDS011;6652;48.802;9.190;2023-02-03T15:42:13;1.75;;;0.25;;
13173;SDS011;6652;48.802;9.190;2023-02-03T15:44:47;1.15;;;0.35;;
13173;SDS011;6652;48.802;9.190;2023-02-03T15:47:21;5.03;;;0.63;;
13173;SDS011;6652;48.802;9.190;2023-02-03T15:49:55;0.20;;;0.20;;
13173;SDS011;6652;48.802;9.190;2023-02-03T15:52:27;0.60;;;0.40;;
13173;SDS011;6652;48.802;9.190;2023-02-03T15:55:00;2.45;;;0.60;;
13173;SDS011;6652;48.802;9.190;2023-02-03T15:57:34;2.47;;;0.43;;
13173;SDS011;6652;48.802;9.190;2023-02-03T16:00:07;2.22;;;0.40;;
13173;SDS011;6652;48.802;9.190;2023-02-03T16:02:38;1.30;;;0.50;;
13173;SDS011;6652;48.802;9.190;2023-02-03T16:05:14;0.82;;;0.50;;